sensor_id;sensor_type;location;lat;lon;timestamp;P1;durP1;ratioP1;P2;durP2;ratioP2
76155;SDS011;64906;51.290;7.348;2024-03-02T00:02:12;7.72;;;3.80;;
76155;SDS011;64906;51.290;7.348;2024-03-02T00:04:38;7.38;;;3.63;;
76155;SDS011;64906;51.290;7.348;2024-03-02T00:07:03;7.82;;;3.70;;
76155;SDS011;64906;51.290;7.348;2024-03-02T00:09:29;7.47;;;3.70;;
76155;SDS011;64906;51.290;7.348;2024-03-02T00:11:54;7.63;;;3.58;;
76155;SDS011;64906;51.290;7.348;2024-03-02T00:14:20;7.57;;;3.67;;
76155;SDS011;64906;51.290;7.348;2024-03-02T00:16:45;6.80;;;3.65;;
76155;SDS011;64906;51.290;7.348;2024-03-02T00:19:11;7.65;;;3.60;;
76155;SDS011;64906;51.290;7.348;2024-03-02T00:21:36;9.00;;;3.83;;
76155;SDS011;64906;51.290;7.348;2024-03-02T00:24:06;7.22;;;4.00;;
76155;SDS011;64906;51.290;7.348;2024-03-02T00:26:45;6.25;;;3.20;;
76155;SDS011;64906;51.290;7.348;2024-03-02T00:29:11;7.43;;;3.45;;
76155;SDS011;64906;51.290;7.348;2024-03-02T00:31:41;6.85;;;3.70;;
76155;SDS011;64906;51.290;7.348;2024-03-02T00:34:06;8.10;;;3.80;;
76155;SDS011;64906;51.290;7.348;2024-03-02T00:36:32;7.18;;;3.63;;
76155;SDS011;64906;51.290;7.348;2024-03-02T00:38:58;7.40;;;3.60;;
76155;SDS011;64906;51.290;7.348;2024-03-02T00:41:24;5.72;;;3.00;;
76155;SDS011;64906;51.290;7.348;2024-03-02T00:46:30;6.78;;;3.33;;
76155;SDS011;64906;51.290;7.348;2024-03-02T00:48:59;6.75;;;3.20;;
76155;SDS011;64906;51.290;7.348;2024-03-02T00:51:26;7.10;;;3.35;;
76155;SDS011;64906;51.290;7.348;2024-03-02T00:53:54;6.20;;;3.00;;
76155;SDS011;64906;51.290;7.348;2024-03-02T00:56:21;6.28;;;3.05;;
76155;SDS011;64906;51.290;7.348;2024-03-02T00:58:47;7.00;;;3.38;;
76155;SDS011;64906;51.290;7.348;2024-03-02T01:01:13;6.78;;;3.47;;
76155;SDS011;64906;51.290;7.348;2024-03-02T01:03:38;6.57;;;3.33;;
76155;SDS011;64906;51.290;7.348;2024-03-02T01:06:04;7.00;;;3.47;;
76155;SDS011;64906;51.290;7.348;2024-03-02T01:08:30;7.65;;;3.72;;
76155;SDS011;64906;51.290;7.348;2024-03-02T01:10:55;6.40;;;2.95;;
76155;SDS011;64906;51.290;7.348;2024-03-02T01:13:21;6.53;;;3.42;;
76155;SDS011;64906;51.290;7.348;2024-03-02T01:15:48;6.60;;;3.20;;
76155;SDS011;64906;51.290;7.348;2024-03-02T01:18:13;6.13;;;3.08;;
76155;SDS011;64906;51.290;7.348;2024-03-02T01:20:39;6.20;;;3.20;;
76155;SDS011;64906;51.290;7.348;2024-03-02T01:23:04;6.50;;;3.07;;
76155;SDS011;64906;51.290;7.348;2024-03-02T01:25:29;6.55;;;2.97;;
76155;SDS011;64906;51.290;7.348;2024-03-02T01:27:55;6.07;;;3.00;;
76155;SDS011;64906;51.290;7.348;2024-03-02T01:30:20;6.77;;;3.10;;
76155;SDS011;64906;51.290;7.348;2024-03-02T01:32:46;6.50;;;3.13;;
76155;SDS011;64906;51.290;7.348;2024-03-02T01:35:12;6.25;;;2.90;;
76155;SDS011;64906;51.290;7.348;2024-03-02T01:37:37;5.63;;;3.20;;
76155;SDS011;64906;51.290;7.348;2024-03-02T01:40:02;6.37;;;3.03;;
76155;SDS011;64906;51.290;7.348;2024-03-02T01:42:33;6.82;;;2.95;;
76155;SDS011;64906;51.290;7.348;2024-03-02T01:44:59;6.10;;;3.17;;
76155;SDS011;64906;51.290;7.348;2024-03-02T01:47:24;5.87;;;2.80;;
76155;SDS011;64906;51.290;7.348;2024-03-02T01:49:50;6.30;;;3.07;;
76155;SDS011;64906;51.290;7.348;2024-03-02T01:52:15;6.47;;;3.05;;
76155;SDS011;64906;51.290;7.348;2024-03-02T01:54:41;6.37;;;2.90;;
76155;SDS011;64906;51.290;7.348;2024-03-02T01:57:06;6.47;;;3.20;;
76155;SDS011;64906;51.290;7.348;2024-03-02T01:59:32;6.10;;;3.00;;
76155;SDS011;64906;51.290;7.348;2024-03-02T02:01:57;5.33;;;2.63;;
76155;SDS011;64906;51.290;7.348;2024-03-02T02:04:22;5.97;;;2.93;;
76155;SDS011;64906;51.290;7.348;2024-03-02T02:06:52;6.20;;;2.80;;
76155;SDS011;64906;51.290;7.348;2024-03-02T02:09:17;6.63;;;2.95;;
76155;SDS011;64906;51.290;7.348;2024-03-02T02:11:43;6.43;;;2.90;;
76155;SDS011;64906;51.290;7.348;2024-03-02T02:14:08;6.27;;;3.10;;
76155;SDS011;64906;51.290;7.348;2024-03-02T02:16:33;5.60;;;2.60;;
76155;SDS011;64906;51.290;7.348;2024-03-02T02:18:59;6.03;;;2.97;;
76155;SDS011;64906;51.290;7.348;2024-03-02T02:21:24;5.17;;;2.73;;
76155;SDS011;64906;51.290;7.348;2024-03-02T02:23:50;4.72;;;2.15;;
76155;SDS011;64906;51.290;7.348;2024-03-02T02:26:15;6.93;;;3.13;;
76155;SDS011;64906;51.290;7.348;2024-03-02T02:28:40;6.38;;;2.90;;
76155;SDS011;64906;51.290;7.348;2024-03-02T02:31:12;6.22;;;2.80;;
76155;SDS011;64906;51.290;7.348;2024-03-02T02:33:39;6.32;;;2.83;;
76155;SDS011;64906;51.290;7.348;2024-03-02T02:36:05;5.43;;;2.83;;
76155;SDS011;64906;51.290;7.348;2024-03-02T02:38:30;6.45;;;2.83;;
76155;SDS011;64906;51.290;7.348;2024-03-02T02:41:02;5.28;;;2.63;;
76155;SDS011;64906;51.290;7.348;2024-03-02T02:43:27;5.45;;;2.78;;
76155;SDS011;64906;51.290;7.348;2024-03-02T02:45:52;5.18;;;2.70;;
76155;SDS011;64906;51.290;7.348;2024-03-02T02:48:18;5.33;;;2.33;;
76155;SDS011;64906;51.290;7.348;2024-03-02T02:50:43;5.30;;;2.43;;
76155;SDS011;64906;51.290;7.348;2024-03-02T02:53:08;4.70;;;2.30;;
76155;SDS011;64906;51.290;7.348;2024-03-02T02:55:34;5.30;;;2.63;;
76155;SDS011;64906;51.290;7.348;2024-03-02T02:58:05;5.72;;;2.67;;
76155;SDS011;64906;51.290;7.348;2024-03-02T03:00:33;6.10;;;2.70;;
76155;SDS011;64906;51.290;7.348;2024-03-02T03:02:58;5.73;;;2.57;;
76155;SDS011;64906;51.290;7.348;2024-03-02T03:05:24;4.97;;;2.22;;
76155;SDS011;64906;51.290;7.348;2024-03-02T03:07:49;6.10;;;2.70;;
76155;SDS011;64906;51.290;7.348;2024-03-02T03:10:15;5.40;;;2.63;;
76155;SDS011;64906;51.290;7.348;2024-03-02T03:12:41;5.20;;;2.47;;
76155;SDS011;64906;51.290;7.348;2024-03-02T03:15:08;5.88;;;2.55;;
76155;SDS011;64906;51.290;7.348;2024-03-02T03:17:34;4.90;;;2.50;;
76155;SDS011;64906;51.290;7.348;2024-03-02T03:20:00;4.55;;;2.20;;
76155;SDS011;64906;51.290;7.348;2024-03-02T03:22:26;5.53;;;2.75;;
76155;SDS011;64906;51.290;7.348;2024-03-02T03:24:51;5.30;;;2.75;;
76155;SDS011;64906;51.290;7.348;2024-03-02T03:27:16;5.57;;;2.50;;
76155;SDS011;64906;51.290;7.348;2024-03-02T03:29:42;4.97;;;2.22;;
76155;SDS011;64906;51.290;7.348;2024-03-02T03:32:07;4.67;;;2.27;;
76155;SDS011;64906;51.290;7.348;2024-03-02T03:34:33;4.63;;;2.30;;
76155;SDS011;64906;51.290;7.348;2024-03-02T03:36:58;5.07;;;2.58;;
76155;SDS011;64906;51.290;7.348;2024-03-02T03:39:24;4.95;;;2.30;;
76155;SDS011;64906;51.290;7.348;2024-03-02T03:41:49;5.37;;;2.40;;
76155;SDS011;64906;51.290;7.348;2024-03-02T03:44:14;5.63;;;2.37;;
76155;SDS011;64906;51.290;7.348;2024-03-02T03:46:40;4.60;;;2.13;;
76155;SDS011;64906;51.290;7.348;2024-03-02T03:49:05;4.90;;;2.43;;
76155;SDS011;64906;51.290;7.348;2024-03-02T03:51:30;5.33;;;2.23;;
76155;SDS011;64906;51.290;7.348;2024-03-02T03:53:55;5.00;;;2.47;;
76155;SDS011;64906;51.290;7.348;2024-03-02T03:56:21;5.05;;;2.50;;
76155;SDS011;64906;51.290;7.348;2024-03-02T03:58:46;4.73;;;2.30;;
76155;SDS011;64906;51.290;7.348;2024-03-02T04:01:11;5.20;;;2.60;;
76155;SDS011;64906;51.290;7.348;2024-03-02T04:03:37;5.67;;;2.50;;
76155;SDS011;64906;51.290;7.348;2024-03-02T04:06:03;5.00;;;2.30;;
76155;SDS011;64906;51.290;7.348;2024-03-02T04:08:28;5.47;;;2.33;;
76155;SDS011;64906;51.290;7.348;2024-03-02T04:10:54;5.83;;;2.43;;
76155;SDS011;64906;51.290;7.348;2024-03-02T04:13:19;4.73;;;2.30;;
76155;SDS011;64906;51.290;7.348;2024-03-02T04:15:44;4.87;;;2.17;;
76155;SDS011;64906;51.290;7.348;2024-03-02T04:18:09;5.00;;;2.30;;
76155;SDS011;64906;51.290;7.348;2024-03-02T04:20:35;6.00;;;2.40;;
76155;SDS011;64906;51.290;7.348;2024-03-02T04:23:00;5.18;;;2.35;;
76155;SDS011;64906;51.290;7.348;2024-03-02T04:25:25;5.43;;;2.33;;
76155;SDS011;64906;51.290;7.348;2024-03-02T04:27:51;5.27;;;2.30;;
76155;SDS011;64906;51.290;7.348;2024-03-02T04:30:16;4.63;;;2.30;;
76155;SDS011;64906;51.290;7.348;2024-03-02T04:32:41;5.17;;;2.30;;
76155;SDS011;64906;51.290;7.348;2024-03-02T04:35:11;5.03;;;2.20;;
76155;SDS011;64906;51.290;7.348;2024-03-02T04:37:36;4.63;;;2.28;;
76155;SDS011;64906;51.290;7.348;2024-03-02T04:40:01;5.13;;;2.17;;
76155;SDS011;64906;51.290;7.348;2024-03-02T04:42:27;4.90;;;2.10;;
76155;SDS011;64906;51.290;7.348;2024-03-02T04:44:52;4.70;;;2.47;;
76155;SDS011;64906;51.290;7.348;2024-03-02T04:47:17;4.37;;;2.00;;
76155;SDS011;64906;51.290;7.348;2024-03-02T04:49:42;4.33;;;1.93;;
76155;SDS011;64906;51.290;7.348;2024-03-02T04:52:08;4.88;;;2.15;;
76155;SDS011;64906;51.290;7.348;2024-03-02T04:54:34;4.57;;;2.25;;
76155;SDS011;64906;51.290;7.348;2024-03-02T04:57:19;5.32;;;2.17;;
76155;SDS011;64906;51.290;7.348;2024-03-02T04:59:44;4.63;;;2.30;;
76155;SDS011;64906;51.290;7.348;2024-03-02T05:02:10;4.93;;;2.40;;
76155;SDS011;64906;51.290;7.348;2024-03-02T05:04:35;4.80;;;2.23;;
76155;SDS011;64906;51.290;7.348;2024-03-02T05:07:00;4.67;;;1.93;;
76155;SDS011;64906;51.290;7.348;2024-03-02T05:09:25;5.23;;;2.30;;
76155;SDS011;64906;51.290;7.348;2024-03-02T05:11:51;4.67;;;2.17;;
76155;SDS011;64906;51.290;7.348;2024-03-02T05:14:35;4.47;;;2.20;;
76155;SDS011;64906;51.290;7.348;2024-03-02T05:17:02;4.47;;;1.80;;
76155;SDS011;64906;51.290;7.348;2024-03-02T05:19:27;5.10;;;2.20;;
76155;SDS011;64906;51.290;7.348;2024-03-02T05:21:52;4.50;;;1.90;;
76155;SDS011;64906;51.290;7.348;2024-03-02T05:24:17;4.20;;;1.80;;
76155;SDS011;64906;51.290;7.348;2024-03-02T05:26:43;4.77;;;1.83;;
76155;SDS011;64906;51.290;7.348;2024-03-02T05:29:08;4.90;;;2.20;;
76155;SDS011;64906;51.290;7.348;2024-03-02T05:31:34;4.40;;;2.00;;
76155;SDS011;64906;51.290;7.348;2024-03-02T05:33:59;4.90;;;1.93;;
76155;SDS011;64906;51.290;7.348;2024-03-02T05:36:24;4.03;;;1.87;;
76155;SDS011;64906;51.290;7.348;2024-03-02T05:38:49;4.00;;;1.50;;
76155;SDS011;64906;51.290;7.348;2024-03-02T05:41:15;4.33;;;2.17;;
76155;SDS011;64906;51.290;7.348;2024-03-02T05:43:40;4.47;;;2.00;;
76155;SDS011;64906;51.290;7.348;2024-03-02T05:46:05;5.00;;;2.03;;
76155;SDS011;64906;51.290;7.348;2024-03-02T05:48:30;4.13;;;2.00;;
76155;SDS011;64906;51.290;7.348;2024-03-02T05:50:56;4.10;;;1.80;;
76155;SDS011;64906;51.290;7.348;2024-03-02T05:53:21;5.95;;;2.10;;
76155;SDS011;64906;51.290;7.348;2024-03-02T05:55:46;4.73;;;1.93;;
76155;SDS011;64906;51.290;7.348;2024-03-02T05:58:12;5.38;;;2.08;;
76155;SDS011;64906;51.290;7.348;2024-03-02T06:00:50;4.18;;;1.92;;
76155;SDS011;64906;51.290;7.348;2024-03-02T06:03:16;4.60;;;2.00;;
76155;SDS011;64906;51.290;7.348;2024-03-02T06:05:41;4.23;;;1.70;;
76155;SDS011;64906;51.290;7.348;2024-03-02T06:08:06;4.30;;;2.10;;
76155;SDS011;64906;51.290;7.348;2024-03-02T06:10:32;4.38;;;1.80;;
76155;SDS011;64906;51.290;7.348;2024-03-02T06:12:57;4.82;;;1.95;;
76155;SDS011;64906;51.290;7.348;2024-03-02T06:15:24;4.97;;;2.10;;
76155;SDS011;64906;51.290;7.348;2024-03-02T06:17:49;4.97;;;1.98;;
76155;SDS011;64906;51.290;7.348;2024-03-02T06:20:14;4.33;;;1.90;;
76155;SDS011;64906;51.290;7.348;2024-03-02T06:22:40;4.90;;;1.77;;
76155;SDS011;64906;51.290;7.348;2024-03-02T06:25:05;3.93;;;1.50;;
76155;SDS011;64906;51.290;7.348;2024-03-02T06:27:30;4.18;;;1.95;;
76155;SDS011;64906;51.290;7.348;2024-03-02T06:29:56;4.47;;;1.87;;
76155;SDS011;64906;51.290;7.348;2024-03-02T06:32:21;3.83;;;1.63;;
76155;SDS011;64906;51.290;7.348;2024-03-02T06:34:48;4.22;;;1.73;;
76155;SDS011;64906;51.290;7.348;2024-03-02T06:37:13;3.70;;;1.53;;
76155;SDS011;64906;51.290;7.348;2024-03-02T06:39:38;3.83;;;1.60;;
76155;SDS011;64906;51.290;7.348;2024-03-02T06:42:03;3.93;;;1.80;;
76155;SDS011;64906;51.290;7.348;2024-03-02T06:44:29;4.15;;;1.90;;
76155;SDS011;64906;51.290;7.348;2024-03-02T06:46:54;4.10;;;1.60;;
76155;SDS011;64906;51.290;7.348;2024-03-02T06:49:19;4.70;;;1.77;;
76155;SDS011;64906;51.290;7.348;2024-03-02T06:51:45;4.37;;;1.93;;
76155;SDS011;64906;51.290;7.348;2024-03-02T06:54:10;3.30;;;1.50;;
76155;SDS011;64906;51.290;7.348;2024-03-02T06:56:35;4.17;;;1.90;;
76155;SDS011;64906;51.290;7.348;2024-03-02T06:59:00;4.93;;;2.10;;
76155;SDS011;64906;51.290;7.348;2024-03-02T07:01:26;3.97;;;1.63;;
76155;SDS011;64906;51.290;7.348;2024-03-02T07:03:51;3.93;;;1.63;;
76155;SDS011;64906;51.290;7.348;2024-03-02T07:06:17;3.83;;;1.70;;
76155;SDS011;64906;51.290;7.348;2024-03-02T07:08:42;4.20;;;1.67;;
76155;SDS011;64906;51.290;7.348;2024-03-02T07:11:08;4.37;;;1.93;;
76155;SDS011;64906;51.290;7.348;2024-03-02T07:13:33;3.50;;;1.40;;
76155;SDS011;64906;51.290;7.348;2024-03-02T07:15:58;4.00;;;1.70;;
76155;SDS011;64906;51.290;7.348;2024-03-02T07:18:29;4.10;;;1.75;;
76155;SDS011;64906;51.290;7.348;2024-03-02T07:20:58;4.00;;;1.60;;
76155;SDS011;64906;51.290;7.348;2024-03-02T07:23:25;4.13;;;1.70;;
76155;SDS011;64906;51.290;7.348;2024-03-02T07:25:52;4.25;;;1.65;;
76155;SDS011;64906;51.290;7.348;2024-03-02T07:28:21;3.83;;;1.77;;
76155;SDS011;64906;51.290;7.348;2024-03-02T07:30:46;4.18;;;1.80;;
76155;SDS011;64906;51.290;7.348;2024-03-02T07:33:12;3.50;;;1.50;;
76155;SDS011;64906;51.290;7.348;2024-03-02T07:35:37;4.60;;;1.63;;
76155;SDS011;64906;51.290;7.348;2024-03-02T07:38:02;3.70;;;1.63;;
76155;SDS011;64906;51.290;7.348;2024-03-02T07:40:28;4.05;;;1.67;;
76155;SDS011;64906;51.290;7.348;2024-03-02T07:42:53;3.40;;;1.40;;
76155;SDS011;64906;51.290;7.348;2024-03-02T07:45:18;4.07;;;1.80;;
76155;SDS011;64906;51.290;7.348;2024-03-02T07:47:44;4.17;;;1.70;;
76155;SDS011;64906;51.290;7.348;2024-03-02T07:50:09;4.88;;;1.88;;
76155;SDS011;64906;51.290;7.348;2024-03-02T07:52:35;3.57;;;1.40;;
76155;SDS011;64906;51.290;7.348;2024-03-02T07:55:00;4.17;;;1.70;;
76155;SDS011;64906;51.290;7.348;2024-03-02T07:57:25;4.17;;;1.60;;
76155;SDS011;64906;51.290;7.348;2024-03-02T07:59:51;4.23;;;1.80;;
76155;SDS011;64906;51.290;7.348;2024-03-02T08:02:16;4.05;;;1.65;;
76155;SDS011;64906;51.290;7.348;2024-03-02T08:04:41;3.22;;;1.42;;
76155;SDS011;64906;51.290;7.348;2024-03-02T08:07:07;4.15;;;1.60;;
76155;SDS011;64906;51.290;7.348;2024-03-02T08:09:34;4.18;;;1.73;;
76155;SDS011;64906;51.290;7.348;2024-03-02T08:11:59;4.03;;;1.67;;
76155;SDS011;64906;51.290;7.348;2024-03-02T08:14:24;4.30;;;1.67;;
76155;SDS011;64906;51.290;7.348;2024-03-02T08:16:50;3.70;;;1.70;;
76155;SDS011;64906;51.290;7.348;2024-03-02T08:19:15;3.63;;;1.50;;
76155;SDS011;64906;51.290;7.348;2024-03-02T08:21:41;4.05;;;1.63;;
76155;SDS011;64906;51.290;7.348;2024-03-02T08:24:07;3.38;;;1.40;;
76155;SDS011;64906;51.290;7.348;2024-03-02T08:26:33;3.88;;;1.70;;
76155;SDS011;64906;51.290;7.348;2024-03-02T08:28:59;4.65;;;1.65;;
76155;SDS011;64906;51.290;7.348;2024-03-02T08:31:27;3.38;;;1.40;;
76155;SDS011;64906;51.290;7.348;2024-03-02T08:33:52;3.45;;;1.33;;
76155;SDS011;64906;51.290;7.348;2024-03-02T08:36:17;3.50;;;1.50;;
76155;SDS011;64906;51.290;7.348;2024-03-02T08:38:43;3.33;;;1.30;;
76155;SDS011;64906;51.290;7.348;2024-03-02T08:41:09;3.95;;;1.70;;
76155;SDS011;64906;51.290;7.348;2024-03-02T08:43:34;4.00;;;1.67;;
76155;SDS011;64906;51.290;7.348;2024-03-02T08:46:00;3.83;;;1.60;;
76155;SDS011;64906;51.290;7.348;2024-03-02T08:48:25;3.77;;;1.43;;
76155;SDS011;64906;51.290;7.348;2024-03-02T08:50:50;4.17;;;1.70;;
76155;SDS011;64906;51.290;7.348;2024-03-02T08:53:16;4.90;;;2.00;;
76155;SDS011;64906;51.290;7.348;2024-03-02T08:55:47;3.28;;;1.38;;
76155;SDS011;64906;51.290;7.348;2024-03-02T08:58:12;4.38;;;1.83;;
76155;SDS011;64906;51.290;7.348;2024-03-02T09:00:38;4.25;;;1.45;;
76155;SDS011;64906;51.290;7.348;2024-03-02T09:03:03;4.63;;;2.00;;
76155;SDS011;64906;51.290;7.348;2024-03-02T09:05:29;3.65;;;1.42;;
76155;SDS011;64906;51.290;7.348;2024-03-02T09:07:54;4.27;;;1.53;;
76155;SDS011;64906;51.290;7.348;2024-03-02T09:10:20;3.42;;;1.40;;
76155;SDS011;64906;51.290;7.348;2024-03-02T09:12:45;4.03;;;1.60;;
76155;SDS011;64906;51.290;7.348;2024-03-02T09:15:10;4.00;;;1.67;;
76155;SDS011;64906;51.290;7.348;2024-03-02T09:17:36;3.80;;;1.63;;
76155;SDS011;64906;51.290;7.348;2024-03-02T09:20:01;3.77;;;1.60;;
76155;SDS011;64906;51.290;7.348;2024-03-02T09:22:29;4.97;;;1.98;;
76155;SDS011;64906;51.290;7.348;2024-03-02T09:24:54;4.18;;;1.60;;
76155;SDS011;64906;51.290;7.348;2024-03-02T09:27:20;4.00;;;1.70;;
76155;SDS011;64906;51.290;7.348;2024-03-02T09:29:45;3.90;;;1.80;;
76155;SDS011;64906;51.290;7.348;2024-03-02T09:32:12;3.90;;;1.67;;
76155;SDS011;64906;51.290;7.348;2024-03-02T09:34:38;4.35;;;1.67;;
76155;SDS011;64906;51.290;7.348;2024-03-02T09:37:03;3.73;;;1.50;;
76155;SDS011;64906;51.290;7.348;2024-03-02T09:39:29;3.80;;;1.55;;
76155;SDS011;64906;51.290;7.348;2024-03-02T09:41:54;3.85;;;1.55;;
76155;SDS011;64906;51.290;7.348;2024-03-02T09:44:20;3.33;;;1.40;;
76155;SDS011;64906;51.290;7.348;2024-03-02T09:46:50;3.60;;;1.60;;
76155;SDS011;64906;51.290;7.348;2024-03-02T09:49:15;4.82;;;2.03;;
76155;SDS011;64906;51.290;7.348;2024-03-02T09:51:41;3.57;;;1.40;;
76155;SDS011;64906;51.290;7.348;2024-03-02T09:54:12;3.80;;;1.50;;
76155;SDS011;64906;51.290;7.348;2024-03-02T09:56:38;3.33;;;1.45;;
76155;SDS011;64906;51.290;7.348;2024-03-02T09:59:04;5.05;;;1.90;;
76155;SDS011;64906;51.290;7.348;2024-03-02T10:01:30;4.53;;;2.10;;
76155;SDS011;64906;51.290;7.348;2024-03-02T10:03:55;5.20;;;2.05;;
76155;SDS011;64906;51.290;7.348;2024-03-02T10:06:25;4.13;;;2.05;;
76155;SDS011;64906;51.290;7.348;2024-03-02T10:08:51;4.60;;;2.00;;
76155;SDS011;64906;51.290;7.348;2024-03-02T10:14:12;5.75;;;2.45;;
76155;SDS011;64906;51.290;7.348;2024-03-02T10:16:42;5.43;;;2.38;;
76155;SDS011;64906;51.290;7.348;2024-03-02T10:19:14;5.38;;;2.22;;
76155;SDS011;64906;51.290;7.348;2024-03-02T10:21:42;5.88;;;2.70;;
76155;SDS011;64906;51.290;7.348;2024-03-02T10:24:07;6.03;;;2.80;;
76155;SDS011;64906;51.290;7.348;2024-03-02T10:26:33;5.85;;;2.42;;
76155;SDS011;64906;51.290;7.348;2024-03-02T10:28:58;6.10;;;2.80;;
76155;SDS011;64906;51.290;7.348;2024-03-02T10:31:24;5.78;;;2.53;;
76155;SDS011;64906;51.290;7.348;2024-03-02T10:33:52;5.53;;;2.53;;
76155;SDS011;64906;51.290;7.348;2024-03-02T10:36:19;5.57;;;2.60;;
76155;SDS011;64906;51.290;7.348;2024-03-02T10:38:44;6.43;;;3.03;;
76155;SDS011;64906;51.290;7.348;2024-03-02T10:41:12;5.82;;;2.72;;
76155;SDS011;64906;51.290;7.348;2024-03-02T10:43:45;7.07;;;3.17;;
76155;SDS011;64906;51.290;7.348;2024-03-02T10:46:11;5.72;;;2.90;;
76155;SDS011;64906;51.290;7.348;2024-03-02T10:48:39;6.60;;;3.22;;
76155;SDS011;64906;51.290;7.348;2024-03-02T10:51:06;5.40;;;2.63;;
76155;SDS011;64906;51.290;7.348;2024-03-02T10:53:31;6.35;;;2.85;;
76155;SDS011;64906;51.290;7.348;2024-03-02T10:55:57;7.32;;;3.42;;
76155;SDS011;64906;51.290;7.348;2024-03-02T10:58:28;6.70;;;3.38;;
76155;SDS011;64906;51.290;7.348;2024-03-02T11:00:58;6.45;;;3.22;;
76155;SDS011;64906;51.290;7.348;2024-03-02T11:03:27;6.28;;;3.00;;
76155;SDS011;64906;51.290;7.348;2024-03-02T11:05:58;6.20;;;3.10;;
76155;SDS011;64906;51.290;7.348;2024-03-02T11:08:25;8.57;;;3.38;;
76155;SDS011;64906;51.290;7.348;2024-03-02T11:10:58;6.38;;;3.20;;
76155;SDS011;64906;51.290;7.348;2024-03-02T11:13:35;7.57;;;3.45;;
76155;SDS011;64906;51.290;7.348;2024-03-02T11:16:06;5.57;;;2.80;;
76155;SDS011;64906;51.290;7.348;2024-03-02T11:18:37;6.35;;;3.17;;
76155;SDS011;64906;51.290;7.348;2024-03-02T11:21:04;7.20;;;3.30;;
76155;SDS011;64906;51.290;7.348;2024-03-02T11:23:33;6.70;;;3.25;;
76155;SDS011;64906;51.290;7.348;2024-03-02T11:28:46;5.97;;;2.92;;
76155;SDS011;64906;51.290;7.348;2024-03-02T11:31:12;5.97;;;2.78;;
76155;SDS011;64906;51.290;7.348;2024-03-02T11:33:37;6.77;;;3.20;;
76155;SDS011;64906;51.290;7.348;2024-03-02T11:36:03;8.20;;;3.40;;
76155;SDS011;64906;51.290;7.348;2024-03-02T11:38:30;6.65;;;3.45;;
76155;SDS011;64906;51.290;7.348;2024-03-02T11:40:57;7.35;;;3.53;;
76155;SDS011;64906;51.290;7.348;2024-03-02T11:43:25;6.93;;;3.00;;
76155;SDS011;64906;51.290;7.348;2024-03-02T11:46:03;6.65;;;3.50;;
76155;SDS011;64906;51.290;7.348;2024-03-02T11:48:32;6.25;;;3.25;;
76155;SDS011;64906;51.290;7.348;2024-03-02T11:50:57;7.85;;;3.13;;
76155;SDS011;64906;51.290;7.348;2024-03-02T11:53:24;6.78;;;3.38;;
76155;SDS011;64906;51.290;7.348;2024-03-02T11:55:57;7.82;;;3.13;;
76155;SDS011;64906;51.290;7.348;2024-03-02T11:58:23;6.93;;;3.50;;
76155;SDS011;64906;51.290;7.348;2024-03-02T12:00:55;7.18;;;3.13;;
76155;SDS011;64906;51.290;7.348;2024-03-02T12:05:50;6.68;;;3.05;;
76155;SDS011;64906;51.290;7.348;2024-03-02T12:08:17;6.82;;;3.20;;
76155;SDS011;64906;51.290;7.348;2024-03-02T12:10:43;6.20;;;3.15;;
76155;SDS011;64906;51.290;7.348;2024-03-02T12:13:21;8.27;;;3.75;;
76155;SDS011;64906;51.290;7.348;2024-03-02T12:15:47;6.82;;;3.30;;
76155;SDS011;64906;51.290;7.348;2024-03-02T12:18:12;6.33;;;3.20;;
76155;SDS011;64906;51.290;7.348;2024-03-02T12:20:38;6.23;;;2.87;;
76155;SDS011;64906;51.290;7.348;2024-03-02T12:23:04;6.50;;;3.40;;
76155;SDS011;64906;51.290;7.348;2024-03-02T12:25:30;5.88;;;3.13;;
76155;SDS011;64906;51.290;7.348;2024-03-02T12:27:57;6.65;;;3.38;;
76155;SDS011;64906;51.290;7.348;2024-03-02T12:30:26;6.35;;;2.90;;
76155;SDS011;64906;51.290;7.348;2024-03-02T12:32:54;6.50;;;3.10;;
76155;SDS011;64906;51.290;7.348;2024-03-02T12:35:19;7.15;;;3.53;;
76155;SDS011;64906;51.290;7.348;2024-03-02T12:37:49;7.10;;;3.20;;
76155;SDS011;64906;51.290;7.348;2024-03-02T12:40:15;6.82;;;3.28;;
76155;SDS011;64906;51.290;7.348;2024-03-02T12:42:43;6.63;;;3.25;;
76155;SDS011;64906;51.290;7.348;2024-03-02T12:45:10;6.85;;;3.58;;
76155;SDS011;64906;51.290;7.348;2024-03-02T12:47:36;5.88;;;3.00;;
76155;SDS011;64906;51.290;7.348;2024-03-02T12:50:03;5.88;;;2.97;;
76155;SDS011;64906;51.290;7.348;2024-03-02T12:52:29;6.40;;;3.30;;
76155;SDS011;64906;51.290;7.348;2024-03-02T12:54:55;7.68;;;3.33;;
76155;SDS011;64906;51.290;7.348;2024-03-02T12:57:27;7.15;;;3.40;;
76155;SDS011;64906;51.290;7.348;2024-03-02T13:00:06;5.05;;;2.65;;
76155;SDS011;64906;51.290;7.348;2024-03-02T13:02:34;6.75;;;3.25;;
76155;SDS011;64906;51.290;7.348;2024-03-02T13:05:00;6.03;;;3.15;;
76155;SDS011;64906;51.290;7.348;2024-03-02T13:07:26;6.22;;;2.97;;
76155;SDS011;64906;51.290;7.348;2024-03-02T13:09:52;6.47;;;3.13;;
76155;SDS011;64906;51.290;7.348;2024-03-02T13:12:20;7.35;;;3.65;;
76155;SDS011;64906;51.290;7.348;2024-03-02T13:14:49;6.25;;;2.95;;
76155;SDS011;64906;51.290;7.348;2024-03-02T13:17:18;5.47;;;2.80;;
76155;SDS011;64906;51.290;7.348;2024-03-02T13:22:22;6.35;;;3.25;;
76155;SDS011;64906;51.290;7.348;2024-03-02T13:24:48;5.43;;;2.88;;
76155;SDS011;64906;51.290;7.348;2024-03-02T13:27:14;6.22;;;3.20;;
76155;SDS011;64906;51.290;7.348;2024-03-02T13:29:39;6.20;;;3.25;;
76155;SDS011;64906;51.290;7.348;2024-03-02T13:32:05;6.50;;;3.00;;
76155;SDS011;64906;51.290;7.348;2024-03-02T13:34:30;6.25;;;2.88;;
76155;SDS011;64906;51.290;7.348;2024-03-02T13:36:55;6.07;;;3.20;;
76155;SDS011;64906;51.290;7.348;2024-03-02T13:39:20;5.83;;;2.90;;
76155;SDS011;64906;51.290;7.348;2024-03-02T13:41:46;5.90;;;2.90;;
76155;SDS011;64906;51.290;7.348;2024-03-02T13:44:17;6.43;;;3.15;;
76155;SDS011;64906;51.290;7.348;2024-03-02T13:46:43;7.60;;;3.35;;
76155;SDS011;64906;51.290;7.348;2024-03-02T13:49:10;6.30;;;3.15;;
76155;SDS011;64906;51.290;7.348;2024-03-02T13:51:36;5.60;;;3.03;;
76155;SDS011;64906;51.290;7.348;2024-03-02T13:54:02;6.03;;;3.22;;
76155;SDS011;64906;51.290;7.348;2024-03-02T13:56:28;6.03;;;2.88;;
76155;SDS011;64906;51.290;7.348;2024-03-02T13:58:54;6.70;;;3.20;;
76155;SDS011;64906;51.290;7.348;2024-03-02T14:01:19;7.27;;;3.40;;
76155;SDS011;64906;51.290;7.348;2024-03-02T14:03:44;6.47;;;3.10;;
76155;SDS011;64906;51.290;7.348;2024-03-02T14:06:11;6.32;;;3.00;;
76155;SDS011;64906;51.290;7.348;2024-03-02T14:08:36;6.95;;;3.78;;
76155;SDS011;64906;51.290;7.348;2024-03-02T14:11:02;6.40;;;2.93;;
76155;SDS011;64906;51.290;7.348;2024-03-02T14:13:27;6.13;;;2.97;;
76155;SDS011;64906;51.290;7.348;2024-03-02T14:15:52;6.95;;;3.28;;
76155;SDS011;64906;51.290;7.348;2024-03-02T14:18:18;6.93;;;3.25;;
76155;SDS011;64906;51.290;7.348;2024-03-02T14:20:45;6.82;;;3.30;;
76155;SDS011;64906;51.290;7.348;2024-03-02T14:23:11;6.53;;;3.40;;
76155;SDS011;64906;51.290;7.348;2024-03-02T14:25:36;5.70;;;3.13;;
76155;SDS011;64906;51.290;7.348;2024-03-02T14:28:02;6.22;;;2.97;;
76155;SDS011;64906;51.290;7.348;2024-03-02T14:30:27;6.30;;;3.40;;
76155;SDS011;64906;51.290;7.348;2024-03-02T14:32:53;7.17;;;3.40;;
76155;SDS011;64906;51.290;7.348;2024-03-02T14:35:18;6.67;;;3.30;;
76155;SDS011;64906;51.290;7.348;2024-03-02T14:37:43;5.17;;;2.53;;
76155;SDS011;64906;51.290;7.348;2024-03-02T14:40:09;7.00;;;3.15;;
76155;SDS011;64906;51.290;7.348;2024-03-02T14:42:36;5.35;;;2.88;;
76155;SDS011;64906;51.290;7.348;2024-03-02T14:45:01;7.15;;;3.35;;
76155;SDS011;64906;51.290;7.348;2024-03-02T14:47:29;5.55;;;2.88;;
76155;SDS011;64906;51.290;7.348;2024-03-02T14:50:01;6.70;;;2.85;;
76155;SDS011;64906;51.290;7.348;2024-03-02T14:52:31;5.75;;;2.92;;
76155;SDS011;64906;51.290;7.348;2024-03-02T14:54:57;5.85;;;2.97;;
76155;SDS011;64906;51.290;7.348;2024-03-02T14:57:23;7.05;;;3.75;;